CFC411 ESNQ-ENTC

Flight info

Callsign CFC411
Flight time 0h 47m
Altitude 15000
Route POBEL DCT MANKI
Aircraft C130/M-SDE2E3FGRY/H

Departure

Time 2026-04-28 14:27
Airport Kiruna Airport (ESNQ)

Arrival

Time 2026-04-28 15:14
Airport Tromsø Airport (ENTC)
Time Latitude Longitude Altitude Speed Heading
2026-04-28 14:17 67.82145 20.32738 1479 ft 0 kts 216°
2026-04-28 14:21 67.82143 20.32733 1479 ft 1 kts 214°
2026-04-28 14:22 67.82140 20.32730 1470 ft 2 kts 210°
2026-04-28 14:22 67.82128 20.32744 1476 ft 2 kts 140°
2026-04-28 14:22 67.82134 20.32783 1470 ft 2 kts 40°
2026-04-28 14:22 67.82150 20.32798 1470 ft 5 kts 26°
2026-04-28 14:23 67.82156 20.32931 1466 ft 11 kts 116°
2026-04-28 14:23 67.82119 20.33069 1474 ft 8 kts 123°
2026-04-28 14:23 67.82098 20.33148 1474 ft 0 kts 125°
2026-04-28 14:25 67.82080 20.33216 1474 ft 9 kts 124°
2026-04-28 14:25 67.82057 20.33356 1473 ft 7 kts 119°
2026-04-28 14:25 67.82028 20.33378 1477 ft 4 kts 186°
2026-04-28 14:26 67.82009 20.33354 1480 ft 0 kts 213°
2026-04-28 14:26 67.81976 20.33298 1470 ft 36 kts 214°
2026-04-28 14:27 67.81480 20.32428 1507 ft 128 kts 212°
2026-04-28 14:27 67.80622 20.30976 1838 ft 157 kts 215°
2026-04-28 14:27 67.79673 20.29252 2395 ft 177 kts 217°
2026-04-28 14:27 67.78564 20.27286 2699 ft 209 kts 217°
2026-04-28 14:28 67.77290 20.25074 3115 ft 225 kts 213°
2026-04-28 14:28 67.75926 20.22987 3786 ft 228 kts 211°
2026-04-28 14:28 67.74510 20.21009 4411 ft 233 kts 209°
2026-04-28 14:28 67.73092 20.18920 5120 ft 232 kts 212°
2026-04-28 14:29 67.71785 20.16487 5809 ft 231 kts 231°
2026-04-28 14:29 67.71162 20.12727 6445 ft 226 kts 269°
2026-04-28 14:29 67.71553 20.08849 7063 ft 220 kts 309°
2026-04-28 14:29 67.72662 20.06132 7704 ft 218 kts 326°
2026-04-28 14:30 67.73900 20.03846 8386 ft 217 kts 328°
2026-04-28 14:30 67.75179 20.01747 9071 ft 216 kts 335°
2026-04-28 14:30 67.76548 20.00094 9771 ft 216 kts 337°
2026-04-28 14:30 67.77922 19.98513 10460 ft 216 kts 337°
2026-04-28 14:31 67.79296 19.96914 11069 ft 217 kts 338°
2026-04-28 14:31 67.80679 19.95290 11642 ft 218 kts 338°
2026-04-28 14:31 67.82064 19.93651 12235 ft 219 kts 338°
2026-04-28 14:31 67.83454 19.91998 12810 ft 220 kts 338°
2026-04-28 14:32 67.84853 19.90329 13367 ft 221 kts 338°
2026-04-28 14:32 67.86261 19.88643 13924 ft 222 kts 339°
2026-04-28 14:32 67.87675 19.86947 14418 ft 224 kts 339°
2026-04-28 14:32 67.89077 19.85260 14853 ft 225 kts 339°
2026-04-28 14:33 67.90510 19.83535 15290 ft 227 kts 339°
2026-04-28 14:33 67.91951 19.81795 15720 ft 228 kts 339°
2026-04-28 14:33 67.93403 19.80041 16145 ft 230 kts 339°
2026-04-28 14:33 67.94901 19.78232 16178 ft 246 kts 339°
2026-04-28 14:34 67.98206 19.74228 16044 ft 274 kts 338°
2026-04-28 14:34 67.99967 19.72084 15938 ft 283 kts 338°
2026-04-28 14:34 68.01180 19.70605 15851 ft 285 kts 338°
2026-04-28 14:35 68.03573 19.67682 15687 ft 287 kts 338°
2026-04-28 14:35 68.05390 19.65458 15557 ft 288 kts 338°
2026-04-28 14:35 68.07216 19.63222 15458 ft 288 kts 338°
2026-04-28 14:35 68.09037 19.60987 15410 ft 287 kts 338°
2026-04-28 14:36 68.10843 19.58767 15410 ft 285 kts 338°
2026-04-28 14:36 68.12640 19.56555 15405 ft 283 kts 338°
2026-04-28 14:36 68.14426 19.54353 15412 ft 281 kts 338°
2026-04-28 14:36 68.16205 19.52156 15411 ft 282 kts 338°
2026-04-28 14:37 68.17983 19.49956 15402 ft 281 kts 338°
2026-04-28 14:37 68.19716 19.47810 15406 ft 281 kts 338°
2026-04-28 14:37 68.21497 19.45598 15394 ft 283 kts 337°
2026-04-28 14:37 68.23292 19.43367 15404 ft 284 kts 337°
2026-04-28 14:38 68.25086 19.41131 15407 ft 284 kts 337°
2026-04-28 14:38 68.26875 19.38898 15401 ft 283 kts 337°
2026-04-28 14:38 68.28664 19.36662 15403 ft 284 kts 337°
2026-04-28 14:38 68.30436 19.34442 15404 ft 284 kts 337°
2026-04-28 14:39 68.32227 19.32195 15405 ft 284 kts 337°
2026-04-28 14:39 68.34020 19.29942 15405 ft 284 kts 337°
2026-04-28 14:39 68.35810 19.27688 15400 ft 283 kts 337°
2026-04-28 14:39 68.37594 19.25438 15398 ft 283 kts 337°
2026-04-28 14:40 68.39385 19.23175 15394 ft 284 kts 336°
2026-04-28 14:40 68.39964 19.22442 15408 ft 283 kts 337°
2026-04-28 14:40 68.42966 19.18639 15404 ft 284 kts 337°
2026-04-28 14:40 68.44758 19.16363 15408 ft 285 kts 337°
2026-04-28 14:41 68.46554 19.14078 15407 ft 285 kts 337°
2026-04-28 14:41 68.48396 19.12142 15404 ft 283 kts 349°
2026-04-28 14:41 68.50357 19.12153 15400 ft 285 kts 11°
2026-04-28 14:41 68.52232 19.14007 15414 ft 288 kts 20°
2026-04-28 14:42 68.54057 19.16243 15407 ft 288 kts 22°
2026-04-28 14:42 68.55254 19.17793 15407 ft 288 kts 22°
2026-04-28 14:42 68.57055 19.20217 15409 ft 288 kts 23°
2026-04-28 14:42 68.58845 19.22693 15410 ft 288 kts 24°
2026-04-28 14:43 68.60630 19.25207 15409 ft 288 kts 24°
2026-04-28 14:43 68.62410 19.27736 15410 ft 289 kts 24°
2026-04-28 14:43 68.64192 19.30288 15413 ft 289 kts 24°
2026-04-28 14:43 68.65972 19.32847 15403 ft 289 kts 24°
2026-04-28 14:44 68.67754 19.35417 15418 ft 290 kts 24°
2026-04-28 14:44 68.69534 19.37992 15425 ft 289 kts 25°
2026-04-28 14:44 68.71317 19.40578 15417 ft 289 kts 24°
2026-04-28 14:44 68.73092 19.43157 15408 ft 289 kts 24°
2026-04-28 14:45 68.74869 19.45743 15414 ft 289 kts 24°
2026-04-28 14:45 68.76655 19.48345 15411 ft 290 kts 25°
2026-04-28 14:45 68.78436 19.50947 15416 ft 290 kts 25°
2026-04-28 14:45 68.80191 19.53519 15401 ft 289 kts 25°
2026-04-28 14:46 68.81995 19.56164 15430 ft 290 kts 25°
2026-04-28 14:46 68.83777 19.58782 15416 ft 289 kts 25°
2026-04-28 14:46 68.85527 19.61356 15417 ft 289 kts 25°
2026-04-28 14:46 68.87303 19.63976 15415 ft 289 kts 25°
2026-04-28 14:47 68.89078 19.66596 15420 ft 290 kts 25°
2026-04-28 14:47 68.90856 19.69228 15420 ft 289 kts 25°
2026-04-28 14:47 68.92637 19.71837 15413 ft 288 kts 22°
2026-04-28 14:47 68.94551 19.73177 15422 ft 284 kts
2026-04-28 14:48 68.96479 19.72086 15426 ft 285 kts 339°
2026-04-28 14:48 68.98281 19.69737 15423 ft 286 kts 336°
2026-04-28 14:48 69.00050 19.67218 15411 ft 284 kts 334°
2026-04-28 14:48 69.01765 19.64652 15458 ft 275 kts 334°
2026-04-28 14:49 69.03435 19.62086 15173 ft 279 kts 334°
2026-04-28 14:49 69.05154 19.59396 15042 ft 273 kts 333°
2026-04-28 14:49 69.06786 19.56808 15068 ft 273 kts 333°
2026-04-28 14:49 69.08473 19.54184 14672 ft 282 kts 333°
2026-04-28 14:50 69.10192 19.51413 14295 ft 288 kts 333°
2026-04-28 14:50 69.11938 19.48581 13860 ft 292 kts 332°
2026-04-28 14:50 69.13686 19.45747 13453 ft 296 kts 332°
2026-04-28 14:50 69.15477 19.42840 13029 ft 299 kts 332°
2026-04-28 14:51 69.17282 19.39887 12619 ft 301 kts 331°
2026-04-28 14:51 69.19095 19.36881 12208 ft 304 kts 331°
2026-04-28 14:51 69.20919 19.33865 11800 ft 305 kts 331°
2026-04-28 14:51 69.22755 19.30834 11388 ft 306 kts 331°
2026-04-28 14:52 69.24590 19.27802 10975 ft 306 kts 331°
2026-04-28 14:52 69.26421 19.24771 10582 ft 305 kts 330°
2026-04-28 14:52 69.28252 19.21725 10174 ft 305 kts 330°
2026-04-28 14:52 69.30083 19.18679 9745 ft 305 kts 330°
2026-04-28 14:53 69.31907 19.15643 9314 ft 304 kts 330°
2026-04-28 14:53 69.33733 19.12599 8894 ft 304 kts 329°
2026-04-28 14:53 69.35556 19.09558 8468 ft 304 kts 329°
2026-04-28 14:53 69.37378 19.06517 8049 ft 303 kts 330°
2026-04-28 14:54 69.39346 19.04389 7634 ft 304 kts 347°
2026-04-28 14:54 69.41437 19.04149 7454 ft 299 kts
2026-04-28 14:54 69.43471 19.05043 7395 ft 291 kts
2026-04-28 14:54 69.45442 19.06122 7398 ft 284 kts
2026-04-28 14:55 69.47357 19.07269 7403 ft 279 kts 10°
2026-04-28 14:55 69.49217 19.08440 7403 ft 275 kts 11°
2026-04-28 14:55 69.51078 19.09644 7413 ft 273 kts 11°
2026-04-28 14:55 69.52924 19.10859 7410 ft 272 kts 11°
2026-04-28 14:56 69.54762 19.12082 7405 ft 271 kts 11°
2026-04-28 14:56 69.56595 19.13310 7410 ft 270 kts 11°
2026-04-28 14:56 69.58416 19.14534 7420 ft 268 kts 11°
2026-04-28 14:56 69.60227 19.15756 7409 ft 267 kts 11°
2026-04-28 14:57 69.62030 19.16976 7428 ft 266 kts 11°
2026-04-28 14:57 69.63226 19.17786 7428 ft 266 kts 11°
2026-04-28 14:57 69.65633 19.19421 7433 ft 265 kts 11°
2026-04-28 14:57 69.67431 19.20646 7436 ft 266 kts 11°
2026-04-28 14:58 69.69233 19.21874 7431 ft 266 kts 11°
2026-04-28 14:58 69.71037 19.23106 7430 ft 267 kts 11°
2026-04-28 14:58 69.72847 19.24345 7430 ft 265 kts 11°
2026-04-28 14:58 69.74615 19.25560 7427 ft 258 kts 11°
2026-04-28 14:59 69.76352 19.26764 7320 ft 258 kts 12°
2026-04-28 14:59 69.78121 19.27980 6991 ft 264 kts 11°
2026-04-28 14:59 69.79919 19.29209 6714 ft 267 kts 11°
2026-04-28 14:59 69.81719 19.30450 6488 ft 266 kts 12°
2026-04-28 15:00 69.83492 19.31674 6274 ft 265 kts 11°
2026-04-28 15:00 69.85281 19.32912 6098 ft 263 kts 12°
2026-04-28 15:00 69.87034 19.34215 6015 ft 256 kts 12°
2026-04-28 15:00 69.88745 19.35439 6011 ft 250 kts 12°
2026-04-28 15:01 69.90427 19.36641 5998 ft 247 kts 12°
2026-04-28 15:01 69.92084 19.37839 6006 ft 245 kts 12°
2026-04-28 15:01 69.93732 19.39033 6001 ft 242 kts 12°
2026-04-28 15:01 69.95363 19.40211 6007 ft 241 kts 12°
2026-04-28 15:02 69.96988 19.41397 6001 ft 240 kts 12°
2026-04-28 15:02 69.98606 19.42577 6005 ft 240 kts 12°
2026-04-28 15:02 70.00242 19.43316 5995 ft 237 kts 353°
2026-04-28 15:02 70.01716 19.41507 5994 ft 231 kts 316°
2026-04-28 15:03 70.02486 19.37528 5999 ft 228 kts 279°
2026-04-28 15:03 70.02250 19.33030 5998 ft 229 kts 243°
2026-04-28 15:03 70.01161 19.29646 6004 ft 231 kts 219°
2026-04-28 15:03 69.99851 19.26903 6004 ft 232 kts 218°
2026-04-28 15:04 69.98856 19.23350 5999 ft 227 kts 251°
2026-04-28 15:04 69.98529 19.18848 5998 ft 227 kts 264°
2026-04-28 15:04 69.98345 19.14268 6005 ft 228 kts 265°
2026-04-28 15:04 69.98169 19.09715 6005 ft 229 kts 265°
2026-04-28 15:05 69.97995 19.05181 6006 ft 229 kts 265°
2026-04-28 15:05 69.97819 19.00607 6002 ft 230 kts 265°
2026-04-28 15:05 69.97638 18.95904 6002 ft 230 kts 265°
2026-04-28 15:05 69.97463 18.91326 6005 ft 230 kts 265°
2026-04-28 15:06 69.97285 18.86675 6007 ft 231 kts 265°
2026-04-28 15:06 69.97106 18.82021 6002 ft 231 kts 265°
2026-04-28 15:06 69.96927 18.77362 5994 ft 230 kts 264°
2026-04-28 15:06 69.96655 18.72823 5478 ft 228 kts 252°
2026-04-28 15:07 69.95896 18.69033 5404 ft 204 kts 229°
2026-04-28 15:07 69.94811 18.66484 4964 ft 202 kts 209°
2026-04-28 15:07 69.93526 18.65237 4693 ft 191 kts 194°
2026-04-28 15:07 69.92202 18.65027 4217 ft 194 kts 169°
2026-04-28 15:08 69.91013 18.66795 3795 ft 192 kts 140°
2026-04-28 15:08 69.90158 18.69731 3359 ft 191 kts 121°
2026-04-28 15:08 69.89596 18.73204 2993 ft 189 kts 112°
2026-04-28 15:08 69.89090 18.76678 2784 ft 188 kts 114°
2026-04-28 15:09 69.88529 18.80035 2658 ft 184 kts 119°
2026-04-28 15:09 69.87857 18.83183 2479 ft 184 kts 126°
2026-04-28 15:09 69.87037 18.86154 2411 ft 193 kts 131°
2026-04-28 15:09 69.86442 18.88165 2446 ft 195 kts 131°
2026-04-28 15:10 69.85260 18.92103 2563 ft 196 kts 133°
2026-04-28 15:10 69.84328 18.95066 2546 ft 202 kts 134°
2026-04-28 15:10 69.83343 18.98058 2534 ft 205 kts 135°
2026-04-28 15:10 69.82335 19.00907 2642 ft 204 kts 139°
2026-04-28 15:11 69.81202 19.03481 2608 ft 207 kts 150°
2026-04-28 15:11 69.79931 19.05164 2713 ft 196 kts 165°
2026-04-28 15:11 69.78587 19.05728 2505 ft 199 kts 182°
2026-04-28 15:11 69.77215 19.05259 2242 ft 197 kts 194°
2026-04-28 15:12 69.75938 19.04011 2030 ft 191 kts 206°
2026-04-28 15:12 69.74817 19.02054 1801 ft 185 kts 219°
2026-04-28 15:12 69.73947 18.99414 1575 ft 177 kts 236°
2026-04-28 15:12 69.73305 18.96584 1288 ft 162 kts 234°
2026-04-28 15:13 69.72489 18.94626 995 ft 146 kts 202°
2026-04-28 15:13 69.71630 18.94133 607 ft 118 kts 191°
2026-04-28 15:13 69.70886 18.93597 436 ft 110 kts 195°
2026-04-28 15:13 69.70112 18.93078 314 ft 115 kts 193°
2026-04-28 15:14 69.69356 18.92568 103 ft 113 kts 195°
2026-04-28 15:14 69.68628 18.92078 22 ft 86 kts 194°
2026-04-28 15:14 69.68360 18.91898 28 ft 12 kts 193°
2026-04-28 15:14 69.68319 18.91764 27 ft 7 kts 274°
2026-04-28 15:15 69.68326 18.91666 26 ft 4 kts 282°
2026-04-28 15:15 69.68330 18.91620 32 ft 3 kts 281°
2026-04-28 15:15 69.68336 18.91533 26 ft 4 kts 285°
2026-04-28 15:15 69.68367 18.91498 26 ft 6 kts 356°
2026-04-28 15:16 69.68414 18.91498 26 ft 7 kts
2026-04-28 15:16 69.68460 18.91508 24 ft 6 kts
2026-04-28 15:16 69.68503 18.91537 24 ft 6 kts 14°
2026-04-28 15:16 69.68550 18.91572 23 ft 8 kts 14°
2026-04-28 15:17 69.68613 18.91602 22 ft 10 kts
2026-04-28 15:17 69.68666 18.91500 19 ft 7 kts 323°
2026-04-28 15:17 69.68715 18.91501 18 ft 7 kts 12°
2026-04-28 15:17 69.68729 18.91510 18 ft 0 kts 13°